Syracuse, New York
Current Conditions -  °F | °C
As of 3:54 PM on Monday 24 Nov 2014 (Local Time) from KSYR Reporting Station
Overcast Overcast  
Wind Chill: 70°   Ceiling: 8000
Heat Index: 70°   Visibility: 10mi
Dew Point: 48°   Wind: 28mph
Humidity: 46%   Direction: 220°SW
Pressure: 29.36"   Gusts: 38mph
Location:  43.05°N, 76.15°W
Report Text: KSYR 242054Z 22024G33KT 10SM SCT065 OVC080 21/09 A2936 RMK AO2 PK WND 18036/2043 RAB07E23 CIG 060 NW SLP938 P0000 60000 T02110089 53008
Loading
Personal Weather Stations






























Interactive Weather Map New forecast layout! Learn more

10-Day Weather Forecast

Advertisements
Track Severe Weather on mobile